sensor_id;sensor_type;location;lat;lon;timestamp;pressure;altitude;pressure_sealevel;temperature;humidity
15634;BME280;14654;48.898;8.308;2023-12-28T00:01:13;100346.19;;;2.54;100.00
15634;BME280;14654;48.898;8.308;2023-12-28T00:03:38;100352.22;;;2.56;100.00
15634;BME280;14654;48.898;8.308;2023-12-28T00:06:06;100355.69;;;2.60;100.00
15634;BME280;14654;48.898;8.308;2023-12-28T00:08:31;100358.47;;;2.69;100.00
15634;BME280;14654;48.898;8.308;2023-12-28T00:10:57;100359.38;;;2.71;100.00
15634;BME280;14654;48.898;8.308;2023-12-28T00:13:23;100361.94;;;2.71;100.00
15634;BME280;14654;48.898;8.308;2023-12-28T00:15:48;100353.16;;;2.60;100.00
15634;BME280;14654;48.898;8.308;2023-12-28T00:18:13;100355.63;;;2.57;100.00
15634;BME280;14654;48.898;8.308;2023-12-28T00:20:39;100359.91;;;2.58;100.00
15634;BME280;14654;48.898;8.308;2023-12-28T00:23:04;100369.31;;;2.61;100.00
15634;BME280;14654;48.898;8.308;2023-12-28T00:25:30;100371.13;;;2.65;100.00
15634;BME280;14654;48.898;8.308;2023-12-28T00:27:56;100372.03;;;2.67;100.00
15634;BME280;14654;48.898;8.308;2023-12-28T00:30:21;100387.41;;;2.68;100.00
15634;BME280;14654;48.898;8.308;2023-12-28T00:32:46;100384.75;;;2.65;100.00
15634;BME280;14654;48.898;8.308;2023-12-28T00:35:11;100392.50;;;2.67;100.00
15634;BME280;14654;48.898;8.308;2023-12-28T00:37:37;100388.03;;;2.59;100.00
15634;BME280;14654;48.898;8.308;2023-12-28T00:40:03;100389.81;;;2.62;100.00
15634;BME280;14654;48.898;8.308;2023-12-28T00:42:28;100394.13;;;2.65;100.00
15634;BME280;14654;48.898;8.308;2023-12-28T00:44:53;100401.06;;;2.69;100.00
15634;BME280;14654;48.898;8.308;2023-12-28T00:47:19;100396.03;;;2.72;100.00
15634;BME280;14654;48.898;8.308;2023-12-28T00:49:44;100401.09;;;2.70;100.00
15634;BME280;14654;48.898;8.308;2023-12-28T00:52:09;100404.53;;;2.71;100.00
15634;BME280;14654;48.898;8.308;2023-12-28T00:54:36;100404.53;;;2.71;100.00
15634;BME280;14654;48.898;8.308;2023-12-28T00:57:03;100413.88;;;2.70;100.00
15634;BME280;14654;48.898;8.308;2023-12-28T00:59:28;100404.47;;;2.69;100.00
15634;BME280;14654;48.898;8.308;2023-12-28T01:01:55;100409.56;;;2.68;100.00
15634;BME280;14654;48.898;8.308;2023-12-28T01:04:20;100406.94;;;2.66;100.00
15634;BME280;14654;48.898;8.308;2023-12-28T01:06:48;100402.66;;;2.65;100.00
15634;BME280;14654;48.898;8.308;2023-12-28T01:09:13;100399.97;;;2.61;100.00
15634;BME280;14654;48.898;8.308;2023-12-28T01:11:39;100388.00;;;2.58;100.00
15634;BME280;14654;48.898;8.308;2023-12-28T01:14:04;100402.44;;;2.56;100.00
15634;BME280;14654;48.898;8.308;2023-12-28T01:16:29;100404.06;;;2.54;100.00
15634;BME280;14654;48.898;8.308;2023-12-28T01:18:54;100409.19;;;2.54;100.00
15634;BME280;14654;48.898;8.308;2023-12-28T01:21:20;100409.16;;;2.52;100.00
15634;BME280;14654;48.898;8.308;2023-12-28T01:23:45;100409.97;;;2.51;100.00
15634;BME280;14654;48.898;8.308;2023-12-28T01:26:14;100394.75;;;2.54;100.00
15634;BME280;14654;48.898;8.308;2023-12-28T01:28:39;100405.88;;;2.58;100.00
15634;BME280;14654;48.898;8.308;2023-12-28T01:31:05;100408.56;;;2.63;100.00
15634;BME280;14654;48.898;8.308;2023-12-28T01:33:30;100415.56;;;2.70;100.00
15634;BME280;14654;48.898;8.308;2023-12-28T01:35:56;100419.88;;;2.72;100.00
15634;BME280;14654;48.898;8.308;2023-12-28T01:38:21;100420.91;;;2.79;100.00
15634;BME280;14654;48.898;8.308;2023-12-28T01:40:46;100426.19;;;2.87;100.00
15634;BME280;14654;48.898;8.308;2023-12-28T01:43:12;100423.91;;;2.98;100.00
15634;BME280;14654;48.898;8.308;2023-12-28T01:45:37;100416.50;;;3.09;100.00
15634;BME280;14654;48.898;8.308;2023-12-28T01:48:03;100426.09;;;3.17;100.00
15634;BME280;14654;48.898;8.308;2023-12-28T01:50:30;100426.31;;;3.28;100.00
15634;BME280;14654;48.898;8.308;2023-12-28T01:52:58;100426.56;;;3.39;100.00
15634;BME280;14654;48.898;8.308;2023-12-28T01:55:26;100425.00;;;3.46;100.00
15634;BME280;14654;48.898;8.308;2023-12-28T01:57:52;100429.38;;;3.50;100.00
15634;BME280;14654;48.898;8.308;2023-12-28T02:00:17;100432.00;;;3.53;100.00
15634;BME280;14654;48.898;8.308;2023-12-28T02:02:44;100429.63;;;3.62;100.00
15634;BME280;14654;48.898;8.308;2023-12-28T02:05:10;100431.63;;;3.76;100.00
15634;BME280;14654;48.898;8.308;2023-12-28T02:07:37;100435.34;;;3.90;100.00
15634;BME280;14654;48.898;8.308;2023-12-28T02:10:02;100421.13;;;4.05;100.00
15634;BME280;14654;48.898;8.308;2023-12-28T02:12:28;100435.94;;;4.20;100.00
15634;BME280;14654;48.898;8.308;2023-12-28T02:14:53;100431.94;;;4.34;100.00
15634;BME280;14654;48.898;8.308;2023-12-28T02:17:28;100415.06;;;4.47;100.00
15634;BME280;14654;48.898;8.308;2023-12-28T02:19:55;100426.50;;;4.65;100.00
15634;BME280;14654;48.898;8.308;2023-12-28T02:22:25;100415.66;;;4.80;100.00
15634;BME280;14654;48.898;8.308;2023-12-28T02:25:04;100417.59;;;4.95;100.00
15634;BME280;14654;48.898;8.308;2023-12-28T02:27:30;100417.88;;;5.12;100.00
15634;BME280;14654;48.898;8.308;2023-12-28T02:29:55;100419.00;;;5.29;100.00
15634;BME280;14654;48.898;8.308;2023-12-28T02:32:33;100417.50;;;5.47;100.00
15634;BME280;14654;48.898;8.308;2023-12-28T02:35:29;100417.75;;;5.64;100.00
15634;BME280;14654;48.898;8.308;2023-12-28T02:37:55;100414.59;;;5.85;100.00
15634;BME280;14654;48.898;8.308;2023-12-28T02:40:23;100407.13;;;6.02;100.00
15634;BME280;14654;48.898;8.308;2023-12-28T02:42:49;100402.19;;;6.19;100.00
15634;BME280;14654;48.898;8.308;2023-12-28T02:45:14;100392.91;;;6.34;100.00
15634;BME280;14654;48.898;8.308;2023-12-28T02:47:40;100401.66;;;6.53;100.00
15634;BME280;14654;48.898;8.308;2023-12-28T02:50:06;100403.53;;;6.69;100.00
15634;BME280;14654;48.898;8.308;2023-12-28T02:52:31;100404.53;;;6.90;100.00
15634;BME280;14654;48.898;8.308;2023-12-28T02:54:56;100402.09;;;7.03;100.00
15634;BME280;14654;48.898;8.308;2023-12-28T02:57:22;100403.88;;;7.19;99.45
15634;BME280;14654;48.898;8.308;2023-12-28T02:59:47;100404.88;;;7.35;98.37
15634;BME280;14654;48.898;8.308;2023-12-28T03:02:12;100400.66;;;7.48;96.88
15634;BME280;14654;48.898;8.308;2023-12-28T03:04:38;100399.00;;;7.59;96.93
15634;BME280;14654;48.898;8.308;2023-12-28T03:07:04;100405.06;;;7.74;95.22
15634;BME280;14654;48.898;8.308;2023-12-28T03:09:30;100408.56;;;7.84;95.05
15634;BME280;14654;48.898;8.308;2023-12-28T03:11:55;100407.72;;;7.94;93.11
15634;BME280;14654;48.898;8.308;2023-12-28T03:14:20;100404.31;;;8.04;93.06
15634;BME280;14654;48.898;8.308;2023-12-28T03:16:48;100399.19;;;8.12;92.42
15634;BME280;14654;48.898;8.308;2023-12-28T03:19:14;100386.31;;;8.18;90.82
15634;BME280;14654;48.898;8.308;2023-12-28T03:21:40;100400.94;;;8.29;89.70
15634;BME280;14654;48.898;8.308;2023-12-28T03:24:05;100398.41;;;8.38;90.63
15634;BME280;14654;48.898;8.308;2023-12-28T03:26:31;100400.13;;;8.45;90.24
15634;BME280;14654;48.898;8.308;2023-12-28T03:28:56;100395.88;;;8.50;90.01
15634;BME280;14654;48.898;8.308;2023-12-28T03:31:21;100395.00;;;8.58;90.00
15634;BME280;14654;48.898;8.308;2023-12-28T03:33:46;100395.00;;;8.65;87.58
15634;BME280;14654;48.898;8.308;2023-12-28T03:36:19;100393.28;;;8.72;87.77
15634;BME280;14654;48.898;8.308;2023-12-28T03:38:44;100401.91;;;8.80;88.30
15634;BME280;14654;48.898;8.308;2023-12-28T03:41:17;100407.06;;;8.85;88.89
15634;BME280;14654;48.898;8.308;2023-12-28T03:43:43;100408.78;;;8.91;88.31
15634;BME280;14654;48.898;8.308;2023-12-28T03:46:09;100405.34;;;8.95;86.38
15634;BME280;14654;48.898;8.308;2023-12-28T03:48:36;100403.63;;;9.03;85.12
15634;BME280;14654;48.898;8.308;2023-12-28T03:51:01;100404.50;;;9.11;84.97
15634;BME280;14654;48.898;8.308;2023-12-28T03:53:26;100405.31;;;9.17;84.77
15634;BME280;14654;48.898;8.308;2023-12-28T03:55:51;100408.78;;;9.20;85.49
15634;BME280;14654;48.898;8.308;2023-12-28T03:58:17;100402.72;;;9.24;84.40
15634;BME280;14654;48.898;8.308;2023-12-28T04:00:42;100409.63;;;9.32;84.57
15634;BME280;14654;48.898;8.308;2023-12-28T04:03:07;100407.03;;;9.33;85.36
15634;BME280;14654;48.898;8.308;2023-12-28T04:05:33;100412.19;;;9.35;85.97
15634;BME280;14654;48.898;8.308;2023-12-28T04:07:58;100418.19;;;9.40;86.25
15634;BME280;14654;48.898;8.308;2023-12-28T04:10:31;100421.66;;;9.43;87.75
15634;BME280;14654;48.898;8.308;2023-12-28T04:12:57;100431.13;;;9.44;88.78
15634;BME280;14654;48.898;8.308;2023-12-28T04:15:24;100426.81;;;9.45;90.23
15634;BME280;14654;48.898;8.308;2023-12-28T04:17:49;100432.84;;;9.42;91.84
15634;BME280;14654;48.898;8.308;2023-12-28T04:20:15;100426.81;;;9.43;94.04
15634;BME280;14654;48.898;8.308;2023-12-28T04:22:40;100422.53;;;9.39;94.96
15634;BME280;14654;48.898;8.308;2023-12-28T04:25:08;100432.00;;;9.36;95.49
15634;BME280;14654;48.898;8.308;2023-12-28T04:27:33;100437.16;;;9.34;96.56
15634;BME280;14654;48.898;8.308;2023-12-28T04:29:59;100432.88;;;9.30;97.22
15634;BME280;14654;48.898;8.308;2023-12-28T04:32:24;100432.88;;;9.27;97.86
15634;BME280;14654;48.898;8.308;2023-12-28T04:34:49;100438.03;;;9.25;97.92
15634;BME280;14654;48.898;8.308;2023-12-28T04:37:15;100428.56;;;9.23;99.08
15634;BME280;14654;48.898;8.308;2023-12-28T04:39:40;100432.03;;;9.20;99.53
15634;BME280;14654;48.898;8.308;2023-12-28T04:42:05;100432.88;;;9.16;100.00
15634;BME280;14654;48.898;8.308;2023-12-28T04:44:30;100440.63;;;9.16;100.00
15634;BME280;14654;48.898;8.308;2023-12-28T04:46:56;100440.63;;;9.14;100.00
15634;BME280;14654;48.898;8.308;2023-12-28T04:49:21;100436.31;;;9.12;100.00
15634;BME280;14654;48.898;8.308;2023-12-28T04:51:46;100450.09;;;9.09;100.00
15634;BME280;14654;48.898;8.308;2023-12-28T04:54:12;100457.84;;;9.06;100.00
15634;BME280;14654;48.898;8.308;2023-12-28T04:56:37;100452.69;;;9.05;100.00
15634;BME280;14654;48.898;8.308;2023-12-28T04:59:03;100440.63;;;9.00;100.00
15634;BME280;14654;48.898;8.308;2023-12-28T05:01:28;100444.09;;;8.98;100.00
15634;BME280;14654;48.898;8.308;2023-12-28T05:03:56;100445.78;;;8.93;100.00
15634;BME280;14654;48.898;8.308;2023-12-28T05:06:22;100462.13;;;8.92;100.00
15634;BME280;14654;48.898;8.308;2023-12-28T05:08:47;100459.53;;;8.89;100.00
15634;BME280;14654;48.898;8.308;2023-12-28T05:11:13;100456.09;;;8.87;100.00
15634;BME280;14654;48.898;8.308;2023-12-28T05:13:38;100448.38;;;8.85;100.00
15634;BME280;14654;48.898;8.308;2023-12-28T05:16:05;100444.91;;;8.80;100.00
15634;BME280;14654;48.898;8.308;2023-12-28T05:18:31;100441.47;;;8.79;100.00
15634;BME280;14654;48.898;8.308;2023-12-28T05:20:56;100438.91;;;8.75;100.00
15634;BME280;14654;48.898;8.308;2023-12-28T05:23:21;100445.78;;;8.73;100.00
15634;BME280;14654;48.898;8.308;2023-12-28T05:25:46;100441.47;;;8.73;100.00
15634;BME280;14654;48.898;8.308;2023-12-28T05:28:13;100450.06;;;8.72;100.00
15634;BME280;14654;48.898;8.308;2023-12-28T05:30:38;100453.50;;;8.74;100.00
15634;BME280;14654;48.898;8.308;2023-12-28T05:33:04;100463.84;;;8.74;100.00
15634;BME280;14654;48.898;8.308;2023-12-28T05:35:29;100459.53;;;8.76;100.00
15634;BME280;14654;48.898;8.308;2023-12-28T05:37:55;100464.69;;;8.76;100.00
15634;BME280;14654;48.898;8.308;2023-12-28T05:40:20;100459.53;;;8.75;100.00
15634;BME280;14654;48.898;8.308;2023-12-28T05:42:45;100463.84;;;8.73;100.00
15634;BME280;14654;48.898;8.308;2023-12-28T05:45:11;100459.53;;;8.73;100.00
15634;BME280;14654;48.898;8.308;2023-12-28T05:47:36;100462.09;;;8.73;100.00
15634;BME280;14654;48.898;8.308;2023-12-28T05:50:01;100457.81;;;8.72;100.00
15634;BME280;14654;48.898;8.308;2023-12-28T05:52:28;100459.53;;;8.73;100.00
15634;BME280;14654;48.898;8.308;2023-12-28T05:54:53;100460.41;;;8.75;100.00
15634;BME280;14654;48.898;8.308;2023-12-28T05:57:21;100451.78;;;8.76;100.00
15634;BME280;14654;48.898;8.308;2023-12-28T05:59:46;100450.09;;;8.77;100.00
15634;BME280;14654;48.898;8.308;2023-12-28T06:02:12;100458.69;;;8.77;100.00
15634;BME280;14654;48.898;8.308;2023-12-28T06:04:37;100459.53;;;8.78;100.00
15634;BME280;14654;48.898;8.308;2023-12-28T06:07:05;100464.69;;;8.78;100.00
15634;BME280;14654;48.898;8.308;2023-12-28T06:09:31;100464.72;;;8.79;100.00
15634;BME280;14654;48.898;8.308;2023-12-28T06:11:56;100463.00;;;8.81;100.00
15634;BME280;14654;48.898;8.308;2023-12-28T06:14:21;100465.56;;;8.83;100.00
15634;BME280;14654;48.898;8.308;2023-12-28T06:16:47;100472.44;;;8.85;100.00
15634;BME280;14654;48.898;8.308;2023-12-28T06:19:12;100481.03;;;8.88;100.00
15634;BME280;14654;48.898;8.308;2023-12-28T06:21:38;100487.97;;;8.90;100.00
15634;BME280;14654;48.898;8.308;2023-12-28T06:24:03;100485.38;;;8.92;100.00
15634;BME280;14654;48.898;8.308;2023-12-28T06:26:29;100490.53;;;8.95;100.00
15634;BME280;14654;48.898;8.308;2023-12-28T06:28:54;100496.56;;;8.98;100.00
15634;BME280;14654;48.898;8.308;2023-12-28T06:31:19;100491.41;;;9.02;100.00
15634;BME280;14654;48.898;8.308;2023-12-28T06:33:45;100498.28;;;9.04;100.00
15634;BME280;14654;48.898;8.308;2023-12-28T06:36:11;100500.03;;;9.07;100.00
15634;BME280;14654;48.898;8.308;2023-12-28T06:38:37;100504.31;;;9.09;100.00
15634;BME280;14654;48.898;8.308;2023-12-28T06:41:10;100501.72;;;9.11;100.00
15634;BME280;14654;48.898;8.308;2023-12-28T06:43:35;100498.28;;;9.12;100.00
15634;BME280;14654;48.898;8.308;2023-12-28T06:46:00;100502.59;;;9.14;100.00
15634;BME280;14654;48.898;8.308;2023-12-28T06:48:25;100503.44;;;9.17;100.00
15634;BME280;14654;48.898;8.308;2023-12-28T06:50:51;100507.75;;;9.19;100.00
15634;BME280;14654;48.898;8.308;2023-12-28T06:53:17;100503.44;;;9.20;100.00
15634;BME280;14654;48.898;8.308;2023-12-28T06:55:42;100509.47;;;9.23;100.00
15634;BME280;14654;48.898;8.308;2023-12-28T06:58:08;100506.03;;;9.23;100.00
15634;BME280;14654;48.898;8.308;2023-12-28T07:00:33;100513.78;;;9.27;100.00
15634;BME280;14654;48.898;8.308;2023-12-28T07:02:58;100517.25;;;9.28;100.00
15634;BME280;14654;48.898;8.308;2023-12-28T07:05:24;100508.63;;;9.29;100.00
15634;BME280;14654;48.898;8.308;2023-12-28T07:07:49;100512.06;;;9.29;100.00
15634;BME280;14654;48.898;8.308;2023-12-28T07:10:14;100521.53;;;9.30;100.00
15634;BME280;14654;48.898;8.308;2023-12-28T07:12:40;100523.28;;;9.30;100.00
15634;BME280;14654;48.898;8.308;2023-12-28T07:15:05;100526.69;;;9.30;100.00
15634;BME280;14654;48.898;8.308;2023-12-28T07:17:31;100529.28;;;9.30;100.00
15634;BME280;14654;48.898;8.308;2023-12-28T07:19:56;100522.38;;;9.31;100.00
15634;BME280;14654;48.898;8.308;2023-12-28T07:22:22;100517.22;;;9.31;100.00
15634;BME280;14654;48.898;8.308;2023-12-28T07:24:47;100526.69;;;9.30;100.00
15634;BME280;14654;48.898;8.308;2023-12-28T07:27:13;100527.56;;;9.29;100.00
15634;BME280;14654;48.898;8.308;2023-12-28T07:29:38;100532.72;;;9.29;100.00
15634;BME280;14654;48.898;8.308;2023-12-28T07:32:03;100539.59;;;9.27;100.00
15634;BME280;14654;48.898;8.308;2023-12-28T07:34:29;100555.09;;;9.24;100.00
15634;BME280;14654;48.898;8.308;2023-12-28T07:36:54;100557.69;;;9.20;100.00
15634;BME280;14654;48.898;8.308;2023-12-28T07:39:20;100553.34;;;9.11;100.00
15634;BME280;14654;48.898;8.308;2023-12-28T07:41:45;100561.97;;;9.05;100.00
15634;BME280;14654;48.898;8.308;2023-12-28T07:44:10;100555.06;;;9.01;100.00
15634;BME280;14654;48.898;8.308;2023-12-28T07:46:35;100561.09;;;8.98;100.00
15634;BME280;14654;48.898;8.308;2023-12-28T07:49:01;100567.97;;;8.95;100.00
15634;BME280;14654;48.898;8.308;2023-12-28T07:51:26;100561.09;;;8.94;100.00
15634;BME280;14654;48.898;8.308;2023-12-28T07:53:51;100571.41;;;8.91;100.00
15634;BME280;14654;48.898;8.308;2023-12-28T07:56:17;100574.84;;;8.90;100.00
15634;BME280;14654;48.898;8.308;2023-12-28T07:58:42;100564.50;;;8.87;100.00
15634;BME280;14654;48.898;8.308;2023-12-28T08:01:11;100567.06;;;8.82;100.00
15634;BME280;14654;48.898;8.308;2023-12-28T08:03:36;100555.91;;;8.81;100.00
15634;BME280;14654;48.898;8.308;2023-12-28T08:06:02;100551.59;;;8.80;100.00
15634;BME280;14654;48.898;8.308;2023-12-28T08:08:27;100559.34;;;8.80;100.00
15634;BME280;14654;48.898;8.308;2023-12-28T08:10:52;100566.22;;;8.81;100.00
15634;BME280;14654;48.898;8.308;2023-12-28T08:13:18;100555.91;;;8.81;100.00
15634;BME280;14654;48.898;8.308;2023-12-28T08:15:43;100548.16;;;8.81;100.00
15634;BME280;14654;48.898;8.308;2023-12-28T08:18:10;100554.19;;;8.83;100.00
15634;BME280;14654;48.898;8.308;2023-12-28T08:20:35;100556.75;;;8.87;100.00
15634;BME280;14654;48.898;8.308;2023-12-28T08:23:00;100559.34;;;8.88;100.00
15634;BME280;14654;48.898;8.308;2023-12-28T08:25:26;100555.91;;;8.91;100.00
15634;BME280;14654;48.898;8.308;2023-12-28T08:27:51;100552.47;;;8.93;100.00
15634;BME280;14654;48.898;8.308;2023-12-28T08:30:17;100550.78;;;8.97;100.00
15634;BME280;14654;48.898;8.308;2023-12-28T08:32:42;100537.00;;;9.01;100.00
15634;BME280;14654;48.898;8.308;2023-12-28T08:35:07;100545.63;;;9.05;100.00
15634;BME280;14654;48.898;8.308;2023-12-28T08:37:33;100547.31;;;9.09;100.00
15634;BME280;14654;48.898;8.308;2023-12-28T08:39:58;100558.53;;;9.11;100.00
15634;BME280;14654;48.898;8.308;2023-12-28T08:42:23;100564.56;;;9.13;100.00
15634;BME280;14654;48.898;8.308;2023-12-28T08:44:50;100555.94;;;9.14;100.00
15634;BME280;14654;48.898;8.308;2023-12-28T08:47:15;100557.69;;;9.15;100.00
15634;BME280;14654;48.898;8.308;2023-12-28T08:49:40;100546.50;;;9.16;100.00
15634;BME280;14654;48.898;8.308;2023-12-28T08:52:06;100550.78;;;9.15;100.00
15634;BME280;14654;48.898;8.308;2023-12-28T08:54:31;100551.66;;;9.16;100.00
15634;BME280;14654;48.898;8.308;2023-12-28T08:56:57;100550.78;;;9.14;100.00
15634;BME280;14654;48.898;8.308;2023-12-28T08:59:22;100574.88;;;9.13;100.00
15634;BME280;14654;48.898;8.308;2023-12-28T09:01:47;100567.97;;;9.09;100.00
15634;BME280;14654;48.898;8.308;2023-12-28T09:04:13;100582.63;;;9.05;100.00
15634;BME280;14654;48.898;8.308;2023-12-28T09:06:39;100578.31;;;9.04;100.00
15634;BME280;14654;48.898;8.308;2023-12-28T09:09:04;100578.31;;;9.06;100.00
15634;BME280;14654;48.898;8.308;2023-12-28T09:11:30;100584.31;;;9.08;100.00
15634;BME280;14654;48.898;8.308;2023-12-28T09:13:56;100577.47;;;9.08;100.00
15634;BME280;14654;48.898;8.308;2023-12-28T09:16:21;100592.09;;;9.11;100.00
15634;BME280;14654;48.898;8.308;2023-12-28T09:18:46;100592.94;;;9.13;100.00
15634;BME280;14654;48.898;8.308;2023-12-28T09:21:12;100592.09;;;9.15;100.00
15634;BME280;14654;48.898;8.308;2023-12-28T09:23:38;100605.03;;;9.17;100.00
15634;BME280;14654;48.898;8.308;2023-12-28T09:26:04;100594.69;;;9.17;100.00
15634;BME280;14654;48.898;8.308;2023-12-28T09:28:34;100602.44;;;9.17;100.00
15634;BME280;14654;48.898;8.308;2023-12-28T09:31:00;100617.06;;;9.18;100.00
15634;BME280;14654;48.898;8.308;2023-12-28T09:33:25;100601.59;;;9.21;100.00
15634;BME280;14654;48.898;8.308;2023-12-28T09:35:50;100599.00;;;9.26;100.00
15634;BME280;14654;48.898;8.308;2023-12-28T09:38:16;100606.78;;;9.29;100.00
15634;BME280;14654;48.898;8.308;2023-12-28T09:40:42;100607.63;;;9.29;100.00
15634;BME280;14654;48.898;8.308;2023-12-28T09:43:23;100595.56;;;9.28;100.00
15634;BME280;14654;48.898;8.308;2023-12-28T09:45:53;100605.00;;;9.23;100.00
15634;BME280;14654;48.898;8.308;2023-12-28T09:48:20;100604.19;;;9.21;100.00
15634;BME280;14654;48.898;8.308;2023-12-28T09:50:53;100592.97;;;9.18;100.00
15634;BME280;14654;48.898;8.308;2023-12-28T09:53:23;100589.50;;;9.15;100.00
15634;BME280;14654;48.898;8.308;2023-12-28T09:55:49;100586.09;;;9.18;100.00
15634;BME280;14654;48.898;8.308;2023-12-28T09:58:17;100586.94;;;9.22;100.00
15634;BME280;14654;48.898;8.308;2023-12-28T10:00:44;100582.66;;;9.27;100.00
15634;BME280;14654;48.898;8.308;2023-12-28T10:03:12;100580.06;;;9.32;100.00
15634;BME280;14654;48.898;8.308;2023-12-28T10:05:37;100578.34;;;9.35;100.00
15634;BME280;14654;48.898;8.308;2023-12-28T10:08:03;100576.63;;;9.42;100.00
15634;BME280;14654;48.898;8.308;2023-12-28T10:10:29;100578.34;;;9.48;100.00
15634;BME280;14654;48.898;8.308;2023-12-28T10:12:54;100570.63;;;9.54;100.00
15634;BME280;14654;48.898;8.308;2023-12-28T10:15:20;100567.16;;;9.59;100.00
15634;BME280;14654;48.898;8.308;2023-12-28T10:17:46;100565.44;;;9.65;100.00
15634;BME280;14654;48.898;8.308;2023-12-28T10:20:12;100573.19;;;9.71;100.00
15634;BME280;14654;48.898;8.308;2023-12-28T10:22:37;100562.00;;;9.73;100.00
15634;BME280;14654;48.898;8.308;2023-12-28T10:25:03;100559.41;;;9.75;100.00
15634;BME280;14654;48.898;8.308;2023-12-28T10:27:29;100568.00;;;9.77;100.00
15634;BME280;14654;48.898;8.308;2023-12-28T10:29:55;100566.28;;;9.76;100.00
15634;BME280;14654;48.898;8.308;2023-12-28T10:32:21;100557.69;;;9.75;100.00
15634;BME280;14654;48.898;8.308;2023-12-28T10:34:48;100559.41;;;9.73;100.00
15634;BME280;14654;48.898;8.308;2023-12-28T10:37:14;100561.13;;;9.71;100.00
15634;BME280;14654;48.898;8.308;2023-12-28T10:39:45;100564.56;;;9.69;100.00
15634;BME280;14654;48.898;8.308;2023-12-28T10:42:13;100558.53;;;9.68;100.00
15634;BME280;14654;48.898;8.308;2023-12-28T10:44:42;100562.84;;;9.66;100.00
15634;BME280;14654;48.898;8.308;2023-12-28T10:47:15;100564.56;;;9.67;100.00
15634;BME280;14654;48.898;8.308;2023-12-28T10:49:47;100562.00;;;9.63;100.00
15634;BME280;14654;48.898;8.308;2023-12-28T10:52:16;100560.25;;;9.63;100.00
15634;BME280;14654;48.898;8.308;2023-12-28T10:54:50;100548.19;;;9.62;100.00
15634;BME280;14654;48.898;8.308;2023-12-28T10:57:23;100550.78;;;9.62;100.00
15634;BME280;14654;48.898;8.308;2023-12-28T10:59:57;100553.38;;;9.65;100.00
15634;BME280;14654;48.898;8.308;2023-12-28T11:02:28;100557.69;;;9.69;100.00
15634;BME280;14654;48.898;8.308;2023-12-28T11:04:59;100543.91;;;9.73;100.00
15634;BME280;14654;48.898;8.308;2023-12-28T11:07:26;100543.88;;;9.76;100.00
15634;BME280;14654;48.898;8.308;2023-12-28T11:10:00;100536.97;;;9.79;100.00
15634;BME280;14654;48.898;8.308;2023-12-28T11:12:27;100543.00;;;9.81;100.00
15634;BME280;14654;48.898;8.308;2023-12-28T11:14:53;100536.13;;;9.81;100.00
15634;BME280;14654;48.898;8.308;2023-12-28T11:17:20;100533.53;;;9.83;100.00
15634;BME280;14654;48.898;8.308;2023-12-28T11:19:46;100530.09;;;9.84;100.00
15634;BME280;14654;48.898;8.308;2023-12-28T11:22:13;100528.38;;;9.86;100.00
15634;BME280;14654;48.898;8.308;2023-12-28T11:24:39;100523.19;;;9.90;100.00
15634;BME280;14654;48.898;8.308;2023-12-28T11:27:04;100528.34;;;9.94;100.00
15634;BME280;14654;48.898;8.308;2023-12-28T11:29:31;100530.94;;;9.97;100.00
15634;BME280;14654;48.898;8.308;2023-12-28T11:31:59;100527.50;;;9.98;100.00
15634;BME280;14654;48.898;8.308;2023-12-28T11:34:30;100524.88;;;9.99;100.00
15634;BME280;14654;48.898;8.308;2023-12-28T11:36:57;100525.75;;;10.01;100.00
15634;BME280;14654;48.898;8.308;2023-12-28T11:39:31;100526.59;;;10.03;100.00
15634;BME280;14654;48.898;8.308;2023-12-28T11:42:08;100522.28;;;10.05;100.00
15634;BME280;14654;48.898;8.308;2023-12-28T11:44:42;100524.00;;;10.06;100.00
15634;BME280;14654;48.898;8.308;2023-12-28T11:47:17;100518.81;;;10.06;100.00
15634;BME280;14654;48.898;8.308;2023-12-28T11:49:45;100516.22;;;10.06;100.00
15634;BME280;14654;48.898;8.308;2023-12-28T11:52:23;100518.84;;;10.03;100.00
15634;BME280;14654;48.898;8.308;2023-12-28T11:54:49;100516.25;;;10.02;100.00
15634;BME280;14654;48.898;8.308;2023-12-28T11:57:15;100515.41;;;10.04;100.00
15634;BME280;14654;48.898;8.308;2023-12-28T11:59:41;100515.38;;;10.07;100.00
15634;BME280;14654;48.898;8.308;2023-12-28T12:02:06;100503.28;;;10.10;100.00
15634;BME280;14654;48.898;8.308;2023-12-28T12:04:34;100499.84;;;10.11;100.00
15634;BME280;14654;48.898;8.308;2023-12-28T12:07:03;100505.91;;;10.11;100.00
15634;BME280;14654;48.898;8.308;2023-12-28T12:09:29;100509.34;;;10.09;100.00
15634;BME280;14654;48.898;8.308;2023-12-28T12:11:57;100513.69;;;10.03;100.00
15634;BME280;14654;48.898;8.308;2023-12-28T12:14:23;100512.81;;;9.98;100.00
15634;BME280;14654;48.898;8.308;2023-12-28T12:16:49;100514.53;;;9.96;100.00
15634;BME280;14654;48.898;8.308;2023-12-28T12:19:15;100519.72;;;9.93;100.00
15634;BME280;14654;48.898;8.308;2023-12-28T12:21:40;100524.03;;;9.94;100.00
15634;BME280;14654;48.898;8.308;2023-12-28T12:24:06;100528.34;;;9.94;100.00
15634;BME280;14654;48.898;8.308;2023-12-28T12:26:31;100519.72;;;9.91;100.00
15634;BME280;14654;48.898;8.308;2023-12-28T12:28:57;100519.75;;;9.87;100.00
15634;BME280;14654;48.898;8.308;2023-12-28T12:31:23;100515.44;;;9.84;100.00
15634;BME280;14654;48.898;8.308;2023-12-28T12:33:49;100515.47;;;9.81;100.00
15634;BME280;14654;48.898;8.308;2023-12-28T12:36:15;100511.16;;;9.80;100.00
15634;BME280;14654;48.898;8.308;2023-12-28T12:38:41;100511.13;;;9.79;100.00
15634;BME280;14654;48.898;8.308;2023-12-28T12:41:07;100508.56;;;9.77;100.00
15634;BME280;14654;48.898;8.308;2023-12-28T12:43:33;100515.47;;;9.78;100.00
15634;BME280;14654;48.898;8.308;2023-12-28T12:45:58;100507.72;;;9.78;100.00